Current Weather

Heathrow

Heathrow, United Kingdom (EGLL)

Report from: Wednesday, September 28, 2022 9:20 AM BST
Current time: Wednesday, September 28, 2022 9:36 AM BST

Nearby weather
Weather history
Weather forecast

Temperature10.0°C (50.0°F)
Wind chill8.8°C (47.8°F)
Dew point7.0°C (44.6°F)
Winds 5 kts (2.6 m/s, 5.8 mph) Vrb
Winds variableWinds variable from West (260°) to North-Northwest (330°)
Visibility6.2 mi. (10 km)
Clouds Few clouds 4,800 ft. (1,463 m)
Altimeter29.56 in.Hg (1001 mB)
Relative humidity82 %
Density altitude-36 ft. (-11 m)
Remarks Fully automated report
Corrected report
No significant changes expected in the next two hours
Flight conditions Visual Meteorological Conditions
Raw dataCOR EGLL 280820Z AUTO 29005KT 260V330 9999 FEW048 10/07 Q1001 NOSIG
An error has occurred. This application may no longer respond until reloaded. Reload 🗙